Time;durP1;ratioP1;P1;durP2;ratioP2;P2;SDS_P1;SDS_P2;PMS_P1;PMS_P2;Temp;Humidity;BMP_temperature;BMP_pressure;BME280_temperature;BME280_humidity;BME280_pressure;Samples;Min_cycle;Max_cycle;Signal;HPM_P1;HPM_P2
2021/04/14 00:01:45;;;;;;;1.05;0.05;;;21.10;37.10;;;;;;5044388;28;20501;-80
2021/04/14 00:04:10;;;;;;;0.20;0.03;;;21.00;37.00;;;;;;5015859;28;20021;-80
2021/04/14 00:06:36;;;;;;;0.30;0.10;;;21.00;36.90;;;;;;5011831;28;20029;-80
2021/04/14 00:09:04;;;;;;;1.30;0.10;;;21.00;36.90;;;;;;5020197;28;20032;-80
2021/04/14 00:11:30;;;;;;;0.20;0.00;;;21.00;36.90;;;;;;5016732;28;20033;-80
2021/04/14 00:13:56;;;;;;;0.30;0.10;;;21.00;37.00;;;;;;5029057;28;20112;-79
2021/04/14 00:16:25;;;;;;;1.20;0.10;;;21.00;37.00;;;;;;5017794;28;20029;-81
2021/04/14 00:18:51;;;;;;;0.20;0.10;;;21.00;37.00;;;;;;5030700;28;20324;-79
2021/04/14 00:21:20;;;;;;;0.35;0.10;;;20.90;36.90;;;;;;5012740;28;20139;-80
2021/04/14 00:23:46;;;;;;;0.22;0.10;;;20.90;36.90;;;;;;5028778;28;20025;-80
2021/04/14 00:26:14;;;;;;;1.08;0.10;;;20.90;36.80;;;;;;5035032;28;20025;-80
2021/04/14 00:28:47;;;;;;;0.30;0.10;;;20.90;36.90;;;;;;5019301;28;20055;-82
2021/04/14 00:31:13;;;;;;;0.50;0.10;;;20.90;36.90;;;;;;5021894;28;20017;-82
2021/04/14 00:33:43;;;;;;;0.93;0.10;;;20.90;36.90;;;;;;5023068;28;20025;-83
2021/04/14 00:36:10;;;;;;;0.20;0.10;;;20.90;36.90;;;;;;5056216;28;20021;-80
2021/04/14 00:38:54;;;;;;;1.65;0.20;;;20.90;36.90;;;;;;5050223;28;20041;-81
2021/04/14 00:41:20;;;;;;;0.40;0.10;;;20.90;36.80;;;;;;5019654;28;20075;-80
2021/04/14 00:43:46;;;;;;;0.30;0.00;;;20.90;36.90;;;;;;5036346;28;20025;-79
2021/04/14 00:46:12;;;;;;;0.22;0.00;;;20.90;36.80;;;;;;5030949;28;20038;-81
2021/04/14 00:48:38;;;;;;;0.75;0.00;;;20.80;36.80;;;;;;5039944;28;20063;-80
2021/04/14 00:51:06;;;;;;;0.70;0.10;;;20.80;36.80;;;;;;5035934;28;20029;-80
2021/04/14 00:53:35;;;;;;;0.55;0.10;;;20.80;36.80;;;;;;5027900;28;20085;-80
2021/04/14 00:56:01;;;;;;;1.00;0.20;;;20.80;36.80;;;;;;5051266;28;20033;-80
2021/04/14 00:58:45;;;;;;;0.28;0.10;;;20.80;36.80;;;;;;5042920;28;20036;-81
2021/04/14 01:01:12;;;;;;;0.20;0.10;;;20.80;36.80;;;;;;5019863;28;20496;-79
2021/04/14 01:03:39;;;;;;;0.65;0.20;;;20.80;36.80;;;;;;5036911;28;20032;-82
2021/04/14 01:06:12;;;;;;;0.57;0.10;;;20.80;36.80;;;;;;5023742;28;20111;-80
2021/04/14 01:08:41;;;;;;;0.20;0.10;;;20.80;36.70;;;;;;5038039;28;20033;-80
2021/04/14 01:11:09;;;;;;;0.38;0.10;;;20.70;36.60;;;;;;5040512;28;20025;-80
2021/04/14 01:13:37;;;;;;;0.45;0.10;;;20.80;36.70;;;;;;5032424;28;20029;-81
2021/04/14 01:16:04;;;;;;;0.73;0.10;;;20.70;36.70;;;;;;5031278;28;20028;-80
2021/04/14 01:18:36;;;;;;;0.32;0.05;;;20.70;36.70;;;;;;5054790;28;20032;-80
2021/04/14 01:21:05;;;;;;;0.22;0.10;;;20.70;36.70;;;;;;5018722;28;20017;-80
2021/04/14 01:23:33;;;;;;;0.32;0.10;;;20.70;36.70;;;;;;5050485;28;20033;-81
2021/04/14 01:26:00;;;;;;;0.15;0.03;;;20.70;36.70;;;;;;5036256;28;20094;-81
2021/04/14 01:28:47;;;;;;;0.30;0.10;;;20.70;36.70;;;;;;5033889;28;20119;-81
2021/04/14 01:31:19;;;;;;;0.50;0.10;;;20.60;36.70;;;;;;5017355;28;20115;-80
2021/04/14 01:33:45;;;;;;;0.43;0.10;;;20.70;36.70;;;;;;5033807;28;20025;-79
2021/04/14 01:36:11;;;;;;;0.28;0.10;;;20.60;36.70;;;;;;5037307;28;20033;-80
2021/04/14 01:38:38;;;;;;;0.22;0.00;;;20.60;36.70;;;;;;5033844;28;20025;-79
2021/04/14 01:41:06;;;;;;;0.28;0.00;;;20.60;36.70;;;;;;5018428;28;20485;-80
2021/04/14 01:43:51;;;;;;;0.50;0.10;;;20.60;36.70;;;;;;5052391;28;20102;-79
2021/04/14 01:46:17;;;;;;;0.40;0.00;;;20.60;36.70;;;;;;5015240;28;20405;-80
2021/04/14 01:49:01;;;;;;;0.22;0.10;;;20.60;36.70;;;;;;5035575;28;20063;-81
2021/04/14 01:51:27;;;;;;;0.57;0.10;;;20.60;36.70;;;;;;5030848;28;20029;-80
2021/04/14 01:53:53;;;;;;;0.50;0.03;;;20.60;36.70;;;;;;5048284;28;20040;-81
2021/04/14 01:56:19;;;;;;;0.30;0.10;;;20.60;36.70;;;;;;5020465;28;20024;-80
2021/04/14 01:58:45;;;;;;;0.28;0.10;;;20.60;36.70;;;;;;5014651;28;20363;-80
2021/04/14 02:01:11;;;;;;;0.20;0.10;;;20.60;36.60;;;;;;5018558;28;20021;-80
2021/04/14 02:03:40;;;;;;;0.63;0.10;;;20.60;36.60;;;;;;5033852;28;20039;-79
2021/04/14 02:06:09;;;;;;;0.28;0.08;;;20.60;36.60;;;;;;5016125;28;20025;-80
2021/04/14 02:08:39;;;;;;;1.35;0.10;;;20.60;36.60;;;;;;5035866;28;20033;-80
2021/04/14 02:11:06;;;;;;;0.40;0.00;;;20.50;36.60;;;;;;5052725;28;20326;-80
2021/04/14 02:13:37;;;;;;;0.25;0.10;;;20.50;36.60;;;;;;5057280;28;20036;-81
2021/04/14 02:16:05;;;;;;;0.40;0.08;;;20.50;36.60;;;;;;5025861;28;20028;-82
2021/04/14 02:18:31;;;;;;;0.82;0.10;;;20.50;36.60;;;;;;5046314;28;20021;-81
2021/04/14 02:20:59;;;;;;;0.47;0.00;;;20.50;36.60;;;;;;5046315;28;20051;-82
2021/04/14 02:23:29;;;;;;;0.57;0.10;;;20.50;36.60;;;;;;5047672;28;20036;-81
2021/04/14 02:26:20;;;;;;;0.50;0.00;;;20.50;36.60;;;;;;5052414;28;20072;-80
2021/04/14 02:28:46;;;;;;;0.20;0.10;;;20.40;36.50;;;;;;5039776;28;20115;-81
2021/04/14 02:31:15;;;;;;;0.10;0.00;;;20.40;36.50;;;;;;5016509;28;20579;-81
2021/04/14 02:33:44;;;;;;;0.40;0.10;;;20.40;36.60;;;;;;5067766;28;20021;-80
2021/04/14 02:36:10;;;;;;;0.20;0.05;;;20.50;36.60;;;;;;5023883;28;20075;-82
2021/04/14 02:38:37;;;;;;;0.25;0.10;;;20.50;36.60;;;;;;5038310;28;20021;-80
2021/04/14 02:41:04;;;;;;;0.30;0.08;;;20.40;36.60;;;;;;5017842;28;20018;-81
2021/04/14 02:43:30;;;;;;;0.10;0.00;;;20.40;36.50;;;;;;5032919;28;20052;-80
2021/04/14 02:45:56;;;;;;;0.20;0.05;;;20.40;36.60;;;;;;5022129;28;20039;-81
2021/04/14 02:48:22;;;;;;;0.20;0.10;;;20.40;36.60;;;;;;5014432;28;20024;-80
2021/04/14 02:51:08;;;;;;;0.43;0.10;;;20.40;36.60;;;;;;5040312;28;20542;-81
2021/04/14 02:53:34;;;;;;;0.22;0.10;;;20.40;36.50;;;;;;5033552;28;20029;-80
2021/04/14 02:56:00;;;;;;;0.25;0.10;;;20.40;36.50;;;;;;5037277;28;20021;-79
2021/04/14 02:58:29;;;;;;;0.32;0.03;;;20.40;36.50;;;;;;5034966;28;20021;-79
2021/04/14 03:00:55;;;;;;;0.20;0.00;;;20.40;36.60;;;;;;5017067;28;20100;-80
2021/04/14 03:03:22;;;;;;;0.20;0.00;;;20.40;36.50;;;;;;5034817;28;20032;-82
2021/04/14 03:05:49;;;;;;;0.10;0.00;;;20.40;36.50;;;;;;5053827;28;20041;-80
2021/04/14 03:08:14;;;;;;;0.20;0.08;;;20.40;36.50;;;;;;5032104;28;20021;-80
2021/04/14 03:10:58;;;;;;;0.28;0.10;;;20.40;36.50;;;;;;5030866;28;20043;-80
2021/04/14 03:13:25;;;;;;;0.20;0.00;;;20.30;36.40;;;;;;5029226;28;20120;-79
2021/04/14 03:15:51;;;;;;;0.13;0.00;;;20.30;36.40;;;;;;5033570;28;20075;-80
2021/04/14 03:18:18;;;;;;;0.25;0.00;;;20.30;36.50;;;;;;5050982;28;20022;-79
2021/04/14 03:21:03;;;;;;;0.43;0.05;;;20.30;36.50;;;;;;5033517;28;20041;-80
2021/04/14 03:23:29;;;;;;;0.10;0.00;;;20.30;36.40;;;;;;5030236;28;20044;-80
2021/04/14 03:25:55;;;;;;;0.28;0.10;;;20.30;36.40;;;;;;5018481;28;20028;-79
2021/04/14 03:28:21;;;;;;;0.47;0.10;;;20.30;36.40;;;;;;5053607;28;20044;-79
2021/04/14 03:31:05;;;;;;;0.13;0.00;;;20.30;36.40;;;;;;5033053;28;20035;-80
2021/04/14 03:33:31;;;;;;;0.30;0.03;;;20.30;36.40;;;;;;5012179;28;20484;-82
2021/04/14 03:35:57;;;;;;;0.22;0.00;;;20.30;36.50;;;;;;5028029;28;20594;-80
2021/04/14 03:38:23;;;;;;;0.30;0.10;;;20.20;36.40;;;;;;5033912;28;20021;-81
2021/04/14 03:40:49;;;;;;;0.15;0.05;;;20.30;37.00;;;;;;5027610;28;20021;-80
2021/04/14 03:43:15;;;;;;;0.93;0.00;;;20.20;36.40;;;;;;5032305;28;20060;-79
2021/04/14 03:45:44;;;;;;;0.20;0.00;;;20.20;36.40;;;;;;5033289;28;20031;-79
2021/04/14 03:48:11;;;;;;;0.50;0.10;;;20.20;36.90;;;;;;5012596;28;20470;-79
2021/04/14 03:50:40;;;;;;;0.30;0.10;;;20.20;36.50;;;;;;5048754;28;20017;-79
2021/04/14 03:53:24;;;;;;;0.90;0.10;;;20.20;36.40;;;;;;5020447;28;20017;-79
2021/04/14 03:55:57;;;;;;;0.80;0.10;;;20.20;36.40;;;;;;5022735;28;20513;-80
2021/04/14 03:58:25;;;;;;;0.30;0.00;;;20.20;37.00;;;;;;5031583;28;20017;-80
2021/04/14 04:00:52;;;;;;;0.60;0.10;;;20.20;36.40;;;;;;5035804;28;20032;-80
2021/04/14 04:03:20;;;;;;;0.10;0.00;;;20.20;36.40;;;;;;5049278;28;20055;-79
2021/04/14 04:05:47;;;;;;;0.20;0.00;;;20.20;36.40;;;;;;5032071;28;20024;-80
2021/04/14 04:08:13;;;;;;;0.30;0.10;;;20.20;36.50;;;;;;5018790;28;20029;-83
2021/04/14 04:10:39;;;;;;;0.20;0.10;;;20.10;36.40;;;;;;5036788;28;20048;-80
2021/04/14 04:13:06;;;;;;;0.25;0.00;;;20.20;36.50;;;;;;5015203;28;20009;-80
2021/04/14 04:15:50;;;;;;;0.68;0.10;;;20.20;36.50;;;;;;5033000;28;20077;-80
2021/04/14 04:18:17;;;;;;;0.50;0.10;;;20.10;36.50;;;;;;5030592;28;20120;-79
2021/04/14 04:21:01;;;;;;;0.50;0.10;;;20.10;36.40;;;;;;5049161;28;20044;-80
2021/04/14 04:23:27;;;;;;;0.55;0.00;;;20.10;36.30;;;;;;5038698;28;21062;-80
2021/04/14 04:25:53;;;;;;;0.28;0.10;;;20.10;36.30;;;;;;5051692;28;20147;-79
2021/04/14 04:28:19;;;;;;;0.30;0.00;;;20.10;36.40;;;;;;5036338;28;20104;-80
2021/04/14 04:30:46;;;;;;;0.43;0.10;;;20.10;36.30;;;;;;5039269;28;20071;-79
2021/04/14 04:33:13;;;;;;;0.95;0.10;;;20.10;36.30;;;;;;5035268;28;20040;-79
2021/04/14 04:35:38;;;;;;;0.22;0.00;;;20.10;36.40;;;;;;5030611;28;20076;-79
2021/04/14 04:38:05;;;;;;;0.77;0.13;;;20.10;36.40;;;;;;5049989;28;20096;-77
2021/04/14 04:40:50;;;;;;;0.10;0.00;;;20.10;36.40;;;;;;5053583;28;20069;-79
2021/04/14 04:43:17;;;;;;;0.40;0.10;;;20.10;36.40;;;;;;5017925;28;20033;-81
2021/04/14 04:45:43;;;;;;;0.47;0.00;;;20.00;36.30;;;;;;5037612;28;20093;-80
2021/04/14 04:48:10;;;;;;;0.70;0.10;;;20.00;36.40;;;;;;5026226;28;20045;-78
2021/04/14 04:50:37;;;;;;;0.73;0.10;;;20.00;36.40;;;;;;5019272;28;20157;-79
2021/04/14 04:53:10;;;;;;;0.30;0.00;;;20.00;36.40;;;;;;5030655;28;20105;-79
2021/04/14 04:55:36;;;;;;;0.80;0.10;;;20.00;36.40;;;;;;5018935;28;20057;-81
2021/04/14 04:58:03;;;;;;;0.52;0.10;;;20.00;36.40;;;;;;5034482;28;20473;-79
2021/04/14 05:00:47;;;;;;;0.38;0.10;;;20.00;36.40;;;;;;5050953;28;20557;-79
2021/04/14 05:03:15;;;;;;;0.10;0.00;;;20.00;36.40;;;;;;5052799;28;20025;-79
2021/04/14 05:06:00;;;;;;;0.25;0.03;;;20.00;36.30;;;;;;5059362;28;20059;-79
2021/04/14 05:08:27;;;;;;;0.40;0.10;;;20.00;36.40;;;;;;5054996;28;20470;-79
2021/04/14 05:10:54;;;;;;;0.25;0.10;;;20.00;36.30;;;;;;5056229;28;20043;-79
2021/04/14 05:13:21;;;;;;;0.70;0.10;;;20.00;36.30;;;;;;5059451;28;20025;-79
2021/04/14 05:16:05;;;;;;;0.40;0.13;;;20.00;36.30;;;;;;5047535;28;20036;-79
2021/04/14 05:18:34;;;;;;;0.57;0.10;;;20.00;36.90;;;;;;5043682;28;20469;-80
2021/04/14 05:21:00;;;;;;;0.45;0.10;;;19.90;36.30;;;;;;5021211;28;20026;-79
2021/04/14 05:23:29;;;;;;;0.45;0.10;;;20.00;36.40;;;;;;5035343;28;20033;-79
2021/04/14 05:25:56;;;;;;;0.28;0.10;;;19.90;36.30;;;;;;5055349;28;20021;-78
2021/04/14 05:28:24;;;;;;;0.35;0.10;;;19.90;36.30;;;;;;5035541;28;20024;-79
2021/04/14 05:30:51;;;;;;;0.85;0.10;;;19.90;36.30;;;;;;5032563;28;20021;-79
2021/04/14 05:33:18;;;;;;;0.50;0.10;;;19.90;36.30;;;;;;5015291;28;20085;-79
2021/04/14 05:35:54;;;;;;;0.30;0.10;;;19.90;36.30;;;;;;5017047;28;20953;-79
2021/04/14 05:38:20;;;;;;;0.35;0.10;;;19.90;36.30;;;;;;5014941;28;20040;-79
2021/04/14 05:40:46;;;;;;;0.40;0.10;;;19.90;36.30;;;;;;5020452;28;20033;-79
2021/04/14 05:43:20;;;;;;;0.43;0.00;;;19.90;36.30;;;;;;5015934;28;20029;-79
2021/04/14 05:45:47;;;;;;;0.30;0.10;;;19.90;36.60;;;;;;5019426;28;20026;-80
2021/04/14 05:48:14;;;;;;;0.45;0.10;;;20.00;36.60;;;;;;5033517;28;20648;-79
2021/04/14 05:51:00;;;;;;;0.10;0.00;;;20.10;36.40;;;;;;5037039;28;20043;-79
2021/04/14 05:53:26;;;;;;;1.45;0.10;;;20.30;36.20;;;;;;5036785;28;20452;-79
2021/04/14 05:55:52;;;;;;;0.40;0.00;;;20.40;36.10;;;;;;5032422;28;20021;-79
2021/04/14 05:58:18;;;;;;;0.45;0.10;;;20.50;35.90;;;;;;5050946;28;20025;-81
2021/04/14 06:01:07;;;;;;;0.30;0.00;;;20.60;35.80;;;;;;5038333;28;20071;-79
2021/04/14 06:03:33;;;;;;;0.32;0.10;;;20.70;35.70;;;;;;5033525;28;21612;-81
2021/04/14 06:05:59;;;;;;;0.30;0.10;;;20.80;35.60;;;;;;5033941;28;20021;-81
2021/04/14 06:08:27;;;;;;;0.32;0.10;;;20.80;35.60;;;;;;5032904;28;20045;-81
2021/04/14 06:10:53;;;;;;;0.30;0.05;;;20.90;35.60;;;;;;5032854;28;20052;-80
2021/04/14 06:13:19;;;;;;;0.20;0.10;;;20.90;35.50;;;;;;5030353;28;20053;-80
2021/04/14 06:16:06;;;;;;;0.57;0.10;;;20.90;35.50;;;;;;5044068;28;20063;-79
2021/04/14 06:18:32;;;;;;;0.25;0.03;;;21.00;35.50;;;;;;5026191;28;20033;-80
2021/04/14 06:20:59;;;;;;;0.47;0.10;;;20.90;35.50;;;;;;5040498;28;20017;-80
2021/04/14 06:23:25;;;;;;;0.40;0.10;;;21.00;35.50;;;;;;5018275;28;20107;-79
2021/04/14 06:28:28;;;;;;;0.75;0.20;;;21.10;35.50;;;;;;5051655;28;20503;-80
2021/04/14 06:30:54;;;;;;;0.22;0.10;;;21.10;35.50;;;;;;5036781;28;20028;-80
2021/04/14 06:33:22;;;;;;;0.63;0.10;;;21.10;35.50;;;;;;5015631;28;20093;-79
2021/04/14 06:35:49;;;;;;;0.32;0.10;;;21.10;35.50;;;;;;5015451;28;20028;-78
2021/04/14 06:38:18;;;;;;;0.30;0.10;;;21.20;35.50;;;;;;5012805;28;20024;-78
2021/04/14 06:44:14;;;;;;;1.02;0.32;;;21.20;35.80;;;;;;5052159;28;21397;-80
2021/04/14 06:46:59;;;;;;;1.27;0.20;;;21.20;35.20;;;;;;5034596;28;20087;-79
2021/04/14 06:49:54;;;;;;;3.35;0.10;;;21.10;35.10;;;;;;5045152;28;20553;-80
2021/04/14 06:52:36;;;;;;;0.70;0.10;;;21.10;35.00;;;;;;5042074;28;20285;-80
2021/04/14 06:55:10;;;;;;;0.93;0.20;;;21.10;35.00;;;;;;5035662;28;20429;-80
2021/04/14 06:57:58;;;;;;;1.30;0.20;;;21.00;34.70;;;;;;5037139;28;20040;-79
2021/04/14 07:00:36;;;;;;;2.47;0.13;;;21.00;34.80;;;;;;5033008;28;20465;-77
2021/04/14 07:03:11;;;;;;;0.35;0.10;;;21.00;34.90;;;;;;5027331;28;20077;-77
2021/04/14 07:06:02;;;;;;;0.95;0.20;;;21.10;35.10;;;;;;5044053;28;20040;-76
2021/04/14 07:08:41;;;;;;;0.60;0.10;;;21.10;35.10;;;;;;5041840;28;20026;-79
2021/04/14 07:11:14;;;;;;;1.38;0.30;;;21.20;35.40;;;;;;5041719;28;20032;-78
2021/04/14 07:13:59;;;;;;;1.98;0.65;;;21.10;35.20;;;;;;5042814;28;20089;-78
2021/04/14 07:16:43;;;;;;;1.73;0.40;;;21.20;35.80;;;;;;5024864;28;20059;-78
2021/04/14 07:19:17;;;;;;;1.27;0.20;;;21.30;35.80;;;;;;5026197;28;21541;-77
2021/04/14 07:22:19;;;;;;;0.93;0.10;;;21.30;35.80;;;;;;5039601;28;20535;-78
2021/04/14 07:24:51;;;;;;;2.25;0.30;;;21.30;35.90;;;;;;5039507;28;20119;-78
2021/04/14 07:27:46;;;;;;;3.17;0.40;;;21.30;35.90;;;;;;5024424;28;20033;-77
2021/04/14 07:30:33;;;;;;;1.33;0.30;;;21.40;36.20;;;;;;5040977;28;20265;-78
2021/04/14 07:33:44;;;;;;;0.60;0.20;;;21.40;36.30;;;;;;5022522;28;20038;-77
2021/04/14 07:36:34;;;;;;;1.52;0.22;;;21.30;36.40;;;;;;5020959;28;20517;-77
2021/04/14 07:39:19;;;;;;;;;;;21.40;36.40;;;;;;5023395;28;20018;-76
2021/04/14 07:42:31;;;;;;;0.70;0.38;;;21.40;36.60;;;;;;5043089;28;19919;-76
2021/04/14 07:45:16;;;;;;;2.55;0.65;;;21.30;36.40;;;;;;4992109;28;20524;-76
2021/04/14 07:48:20;;;;;;;1.50;0.60;;;21.30;36.30;;;;;;5039442;28;20090;-76
2021/04/14 07:50:58;;;;;;;3.38;0.63;;;21.30;36.30;;;;;;5003821;28;20045;-77
2021/04/14 07:53:31;;;;;;;2.60;0.50;;;21.30;36.40;;;;;;5024301;28;20415;-77
2021/04/14 07:56:03;;;;;;;1.33;0.20;;;21.30;36.60;;;;;;5026371;28;20021;-76
2021/04/14 07:58:53;;;;;;;1.10;0.28;;;21.30;36.50;;;;;;5029943;28;20102;-77
2021/04/14 08:01:25;;;;;;;2.85;0.35;;;21.20;36.60;;;;;;5027937;28;20021;-77
2021/04/14 08:04:07;;;;;;;1.05;0.30;;;21.20;36.80;;;;;;5011743;28;20047;-77
2021/04/14 08:06:33;;;;;;;1.17;0.30;;;21.20;36.70;;;;;;5015918;28;20030;-78
2021/04/14 08:09:17;;;;;;;2.15;0.70;;;21.20;36.60;;;;;;5053269;28;20060;-77
2021/04/14 08:12:06;;;;;;;2.45;0.35;;;21.20;36.70;;;;;;5035874;28;20052;-77
2021/04/14 08:14:38;;;;;;;4.82;0.77;;;21.30;36.80;;;;;;5053138;28;20044;-76
2021/04/14 08:17:19;;;;;;;1.65;0.40;;;21.30;36.70;;;;;;5029733;28;20035;-77
2021/04/14 08:20:07;;;;;;;2.78;0.38;;;21.40;37.00;;;;;;5034726;28;20036;-77
2021/04/14 08:22:33;;;;;;;3.20;0.60;;;21.30;36.50;;;;;;5047211;28;20492;-77
2021/04/14 08:25:02;;;;;;;3.60;0.32;;;21.20;36.60;;;;;;5018178;28;20052;-77
2021/04/14 08:27:36;;;;;;;2.20;0.65;;;21.20;36.10;;;;;;5044734;28;20037;-78
2021/04/14 08:30:02;;;;;;;2.90;0.73;;;21.20;36.20;;;;;;5028904;28;20017;-79
2021/04/14 08:32:59;;;;;;;1.20;0.57;;;21.20;36.30;;;;;;5045446;28;20477;-79
2021/04/14 08:35:33;;;;;;;2.65;0.82;;;21.30;36.30;;;;;;5031936;28;20021;-79
2021/04/14 08:38:15;;;;;;;0.88;0.50;;;21.40;36.30;;;;;;5033130;28;20543;-77
2021/04/14 08:40:50;;;;;;;;;;;21.40;36.50;;;;;;5048458;28;20491;-78
2021/04/14 08:43:28;;;;;;;1.58;0.50;;;21.40;36.50;;;;;;5030319;28;19999;-79
2021/04/14 08:45:55;;;;;;;2.05;0.77;;;21.30;36.40;;;;;;5032013;28;20029;-78
2021/04/14 08:48:31;;;;;;;1.67;0.90;;;21.30;36.50;;;;;;5050003;28;20484;-79
2021/04/14 08:51:03;;;;;;;1.02;0.50;;;21.30;36.70;;;;;;5050589;28;20047;-79
2021/04/14 08:53:50;;;;;;;1.23;0.52;;;21.40;36.90;;;;;;5038979;28;20491;-78
2021/04/14 08:56:17;;;;;;;2.90;0.80;;;21.40;37.00;;;;;;5056122;28;20583;-79
2021/04/14 08:58:43;;;;;;;0.90;0.65;;;21.60;37.10;;;;;;5023812;28;20025;-80
2021/04/14 09:01:16;;;;;;;3.72;0.80;;;21.70;36.90;;;;;;5027295;28;20417;-78
2021/04/14 09:04:01;;;;;;;2.97;0.90;;;21.80;36.60;;;;;;5049920;28;20041;-79
2021/04/14 09:06:30;;;;;;;1.70;0.52;;;21.90;36.60;;;;;;5012571;28;20535;-79
2021/04/14 09:09:00;;;;;;;5.47;0.50;;;22.00;36.50;;;;;;5044991;28;20079;-78
2021/04/14 09:11:30;;;;;;;1.83;0.50;;;22.10;36.50;;;;;;5013977;28;20025;-79
2021/04/14 09:14:04;;;;;;;0.95;0.25;;;22.20;36.40;;;;;;5012738;28;20507;-78
2021/04/14 09:16:37;;;;;;;0.90;0.30;;;22.30;36.30;;;;;;5045411;28;20103;-79
2021/04/14 09:19:26;;;;;;;1.08;0.30;;;22.30;36.30;;;;;;5030109;28;20025;-80
2021/04/14 09:22:10;;;;;;;1.85;0.50;;;22.30;36.40;;;;;;5033267;28;20489;-79
2021/04/14 09:24:48;;;;;;;1.20;0.40;;;22.40;36.30;;;;;;5011027;28;20033;-79
2021/04/14 09:27:42;;;;;;;0.82;0.40;;;22.50;36.30;;;;;;5027746;28;20027;-79
2021/04/14 09:30:26;;;;;;;1.35;0.40;;;22.60;36.40;;;;;;5027865;28;20024;-79
2021/04/14 09:33:15;;;;;;;2.05;0.45;;;22.60;36.20;;;;;;5046257;28;20578;-79
2021/04/14 09:35:48;;;;;;;;;;;22.70;36.30;;;;;;5027541;28;20030;-79
2021/04/14 09:40:46;;;;;;;;;;;22.60;36.40;;;;;;5047405;28;20261;-80
2021/04/14 09:43:37;;;;;;;3.08;0.60;;;22.60;36.40;;;;;;5045240;28;19928;-81
2021/04/14 09:46:32;;;;;;;1.77;0.30;;;22.60;36.30;;;;;;5029379;28;20123;-77
2021/04/14 09:49:17;;;;;;;1.10;0.30;;;22.50;36.60;;;;;;5043136;28;20444;-77
2021/04/14 09:52:02;;;;;;;0.80;0.30;;;22.50;37.00;;;;;;5030380;28;20144;-77
2021/04/14 09:54:32;;;;;;;1.13;0.32;;;22.50;36.70;;;;;;5025690;28;20500;-78
2021/04/14 09:57:03;;;;;;;0.65;0.20;;;22.60;36.90;;;;;;5028011;28;20021;-78
2021/04/14 09:59:47;;;;;;;2.03;0.40;;;22.50;36.80;;;;;;5030721;28;20102;-78
2021/04/14 10:02:17;;;;;;;0.70;0.20;;;22.40;36.90;;;;;;5011749;28;20490;-78
2021/04/14 10:04:46;;;;;;;0.73;0.20;;;22.50;37.50;;;;;;5013498;28;20039;-79
2021/04/14 10:07:18;;;;;;;3.10;0.30;;;22.50;37.10;;;;;;5035559;28;20056;-81
2021/04/14 10:09:45;;;;;;;1.08;0.40;;;22.50;37.00;;;;;;5037828;28;20378;-79
2021/04/14 10:12:25;;;;;;;0.70;0.30;;;22.50;37.20;;;;;;5029235;28;20200;-80
2021/04/14 10:14:57;;;;;;;0.40;0.30;;;22.50;37.20;;;;;;5031742;28;20093;-80
2021/04/14 10:17:25;;;;;;;;;;;22.40;37.20;;;;;;5013222;28;20032;-80
2021/04/14 10:20:01;;;;;;;1.85;0.40;;;22.50;37.20;;;;;;5010356;28;19911;-81
2021/04/14 10:22:34;;;;;;;1.60;0.38;;;22.50;37.20;;;;;;5028738;28;20024;-78
2021/04/14 10:25:02;;;;;;;1.05;0.20;;;;;;;;;;5027639;28;20022;-78
2021/04/14 10:27:28;;;;;;;1.00;0.40;;;22.50;37.30;;;;;;5026329;28;20033;-79
2021/04/14 10:29:54;;;;;;;1.00;0.20;;;22.50;37.20;;;;;;5022449;28;20021;-77
2021/04/14 10:32:24;;;;;;;0.60;0.20;;;22.50;37.70;;;;;;5042709;28;20147;-77
2021/04/14 10:34:51;;;;;;;1.30;0.30;;;22.40;37.50;;;;;;5044490;28;20024;-77
2021/04/14 10:37:23;;;;;;;1.08;0.20;;;22.40;37.50;;;;;;5027841;28;20536;-77
2021/04/14 10:39:51;;;;;;;0.80;0.40;;;22.30;37.30;;;;;;5025434;28;20025;-78
2021/04/14 10:42:22;;;;;;;0.60;0.20;;;22.30;37.30;;;;;;5043676;28;20488;-77
2021/04/14 10:45:15;;;;;;;3.28;0.40;;;22.40;37.00;;;;;;5043419;28;20053;-77
2021/04/14 10:47:43;;;;;;;0.65;0.45;;;22.30;37.00;;;;;;5043383;28;20033;-78
2021/04/14 10:50:30;;;;;;;1.40;0.45;;;22.30;36.80;;;;;;5028491;28;20554;-78
2021/04/14 10:53:05;;;;;;;1.00;0.70;;;22.30;36.80;;;;;;5048422;28;20493;-76
2021/04/14 10:55:49;;;;;;;1.00;0.30;;;22.30;37.10;;;;;;5035238;28;20040;-78
2021/04/14 10:58:21;;;;;;;1.80;0.55;;;22.30;37.00;;;;;;5027955;28;20031;-78
2021/04/14 11:01:14;;;;;;;2.25;0.45;;;22.30;37.00;;;;;;5042489;28;20131;-78
2021/04/14 11:03:43;;;;;;;3.45;0.35;;;22.30;37.00;;;;;;5044520;28;20029;-78
2021/04/14 11:06:10;;;;;;;1.40;0.30;;;22.30;37.20;;;;;;5040254;28;20247;-78
2021/04/14 11:08:55;;;;;;;0.68;0.28;;;22.30;37.10;;;;;;5029268;28;20083;-77
2021/04/14 11:11:22;;;;;;;1.40;0.50;;;22.30;37.50;;;;;;5025961;28;20033;-77
2021/04/14 11:14:08;;;;;;;1.58;0.30;;;22.30;37.30;;;;;;5043230;28;20082;-77
2021/04/14 11:16:39;;;;;;;1.98;0.40;;;22.30;37.10;;;;;;5024779;28;20071;-79
2021/04/14 11:19:15;;;;;;;2.58;0.38;;;22.30;37.10;;;;;;5042313;28;20033;-77
2021/04/14 11:22:03;;;;;;;2.13;0.60;;;22.20;37.00;;;;;;5043962;28;20036;-77
2021/04/14 11:24:29;;;;;;;1.13;0.50;;;22.30;36.80;;;;;;5026394;28;20035;-78
2021/04/14 11:26:59;;;;;;;2.40;0.38;;;22.30;36.80;;;;;;5024867;28;20020;-77
2021/04/14 11:29:32;;;;;;;1.13;0.40;;;22.40;36.90;;;;;;5024780;28;20029;-76
2021/04/14 11:31:59;;;;;;;0.90;0.45;;;22.40;37.00;;;;;;5040868;28;20492;-80
2021/04/14 11:34:31;;;;;;;2.25;0.30;;;22.40;37.10;;;;;;5044204;28;20025;-78
2021/04/14 11:37:17;;;;;;;1.63;0.32;;;22.40;37.00;;;;;;5025313;28;20459;-78
2021/04/14 11:39:58;;;;;;;1.23;0.50;;;22.40;36.70;;;;;;5025302;28;20018;-77
2021/04/14 11:42:26;;;;;;;;;;;22.30;36.70;;;;;;5041649;28;20132;-77
2021/04/14 11:44:56;;;;;;;0.52;0.30;;;22.30;36.70;;;;;;5022834;28;19964;-77
2021/04/14 11:47:33;;;;;;;1.25;0.43;;;22.30;36.70;;;;;;5007866;28;20036;-77
2021/04/14 11:50:37;;;;;;;1.05;0.30;;;22.30;36.70;;;;;;5027312;28;20370;-79
2021/04/14 11:53:20;;;;;;;1.27;0.50;;;22.30;36.70;;;;;;5024035;28;20322;-78
2021/04/14 11:56:05;;;;;;;1.10;0.45;;;22.30;36.90;;;;;;5029679;28;20036;-77
2021/04/14 11:58:37;;;;;;;3.15;0.60;;;22.30;36.80;;;;;;5023334;28;20108;-79
2021/04/14 12:01:05;;;;;;;1.45;0.32;;;22.30;37.40;;;;;;5041802;28;20536;-78
2021/04/14 12:03:49;;;;;;;1.33;0.60;;;22.30;36.90;;;;;;5026866;28;20040;-78
2021/04/14 12:06:15;;;;;;;1.92;0.70;;;22.30;37.20;;;;;;5009936;28;20032;-77
2021/04/14 12:08:59;;;;;;;1.30;0.52;;;22.30;37.00;;;;;;5042199;28;20170;-78
2021/04/14 12:11:25;;;;;;;1.23;0.60;;;22.30;37.10;;;;;;5008670;28;20137;-77
2021/04/14 12:14:09;;;;;;;0.80;0.50;;;22.30;37.00;;;;;;5025432;28;20451;-80
2021/04/14 12:16:37;;;;;;;1.58;0.30;;;22.30;37.20;;;;;;5024455;28;20049;-79
2021/04/14 12:19:04;;;;;;;1.33;0.45;;;22.30;37.10;;;;;;5043853;28;20275;-78
2021/04/14 12:21:49;;;;;;;0.73;0.43;;;22.20;37.20;;;;;;5046239;28;20491;-80
2021/04/14 12:24:15;;;;;;;1.52;0.30;;;22.30;37.10;;;;;;5023740;28;20030;-79
2021/04/14 12:27:00;;;;;;;0.80;0.30;;;22.30;37.10;;;;;;5027186;28;20043;-80
2021/04/14 12:29:26;;;;;;;0.57;0.22;;;22.20;37.10;;;;;;5009872;28;20060;-79
2021/04/14 12:32:10;;;;;;;1.85;0.30;;;22.20;37.40;;;;;;5025038;28;20043;-78
2021/04/14 12:34:36;;;;;;;0.55;0.25;;;22.20;37.10;;;;;;5042573;28;20035;-81
2021/04/14 12:37:06;;;;;;;0.90;0.38;;;22.30;37.80;;;;;;5025449;28;20028;-77
2021/04/14 12:39:35;;;;;;;2.28;0.60;;;22.30;37.50;;;;;;5024662;28;20013;-78
2021/04/14 12:42:00;;;;;;;1.65;0.20;;;22.30;37.50;;;;;;5044730;28;20051;-78
2021/04/14 12:44:48;;;;;;;0.82;0.28;;;22.30;37.20;;;;;;5031727;28;20536;-79
2021/04/14 12:47:17;;;;;;;4.95;0.85;;;22.30;37.10;;;;;;5047834;28;20485;-79
2021/04/14 12:50:02;;;;;;;0.70;0.38;;;22.40;37.20;;;;;;5050113;28;20055;-77
2021/04/14 12:52:43;;;;;;;1.08;0.35;;;22.30;37.20;;;;;;5031223;28;20028;-79
2021/04/14 12:55:15;;;;;;;1.40;0.28;;;22.30;37.50;;;;;;5013104;28;20035;-78
2021/04/14 12:57:42;;;;;;;1.20;0.40;;;22.40;37.70;;;;;;5013815;28;20025;-78
2021/04/14 13:00:12;;;;;;;0.50;0.20;;;22.40;37.30;;;;;;5045379;28;20029;-79
2021/04/14 13:03:05;;;;;;;1.98;0.40;;;22.40;37.60;;;;;;5031773;28;20079;-76
2021/04/14 13:05:39;;;;;;;3.05;0.43;;;22.40;37.70;;;;;;5012258;28;20021;-78
2021/04/14 13:08:12;;;;;;;1.08;0.40;;;22.40;38.30;;;;;;5010849;28;20040;-77
2021/04/14 13:10:44;;;;;;;0.70;0.20;;;22.50;37.20;;;;;;5012979;28;20079;-80
2021/04/14 13:13:10;;;;;;;0.93;0.30;;;22.40;37.80;;;;;;5031937;28;20029;-79
2021/04/14 13:16:03;;;;;;;2.00;0.30;;;22.50;37.80;;;;;;5047220;28;20538;-78
2021/04/14 13:18:36;;;;;;;0.43;0.20;;;22.50;38.10;;;;;;5028018;28;20087;-77
2021/04/14 13:21:15;;;;;;;0.55;0.20;;;22.50;38.10;;;;;;5028437;28;20017;-80
2021/04/14 13:24:21;;;;;;;0.63;0.40;;;22.50;37.90;;;;;;5028739;28;20039;-81
2021/04/14 13:26:55;;;;;;;0.60;0.25;;;22.50;37.80;;;;;;5031839;28;20025;-80
2021/04/14 13:29:29;;;;;;;1.00;0.30;;;22.50;37.80;;;;;;5030832;28;20394;-80